Latest Weather Observations for Spitfire Channel

IDQ60801

Issued at 1:02 am EST Wednesday 29 July 2015 (issued every 30 minutes, with the page automatically refreshed every 10 minutes)

About weather observations | Map of weather stations | Latest weather observations for QLD | Other Formats
Station Details ID: 040927 Name: SPITFIRE CHANNEL BEACON Lat: -27.05 Lon: 153.27 Height: 7.0 m
Data from the previous 72 hours. | See also: Recent months for locations in Queensland
Date/Time
EST
Temp
°C
App
Temp
°C
Dew
Point
Rel
Hum
%
Delta-T
°C
Wind Press
QNH
hPa
Press
MSL
hPa
Rain
since 9 am
mm
Dir
 
Spd
km/h
Gust
km/h
Spd
kts
Gust
kts
29/01:00am - - - - - S 28 33 15 18 - - -
29/12:30am - - - - - SSE 28 33 15 18 - - -
29/12:00am - - - - - SSE 26 30 14 16 - - -
 
Date/Time
EST
Temp
°C
App
Temp
°C
Dew
Point
Rel
Hum
%
Delta-T
°C
Wind Press
QNH
hPa
Press
MSL
hPa
Rain
since 9 am
mm
Dir
 
Spd
km/h
Gust
km/h
Spd
kts
Gust
kts
28/11:30pm - - - - - SSE 26 32 14 17 - - -
28/11:00pm - - - - - SSE 24 28 13 15 - - -
28/10:30pm - - - - - SSE 24 28 13 15 - - -
28/10:00pm - - - - - SE 24 28 13 15 - - -
28/09:30pm - - - - - SE 22 26 12 14 - - -
28/09:00pm - - - - - SE 20 24 11 13 - - -
28/08:30pm - - - - - SE 22 26 12 14 - - -
28/08:00pm - - - - - SE 22 26 12 14 - - -
28/07:30pm - - - - - SE 22 24 12 13 - - -
28/07:00pm - - - - - SE 24 28 13 15 - - -
28/06:30pm - - - - - SE 22 26 12 14 - - -
28/06:00pm - - - - - ESE 24 30 13 16 - - -
28/05:30pm - - - - - ESE 24 28 13 15 - - -
28/05:00pm - - - - - ESE 26 30 14 16 - - -
28/04:30pm - - - - - ESE 26 32 14 17 - - -
28/04:00pm - - - - - ESE 24 30 13 16 - - -
28/03:30pm - - - - - ESE 22 26 12 14 - - -
28/03:00pm - - - - - SE 24 28 13 15 - - -
28/02:30pm - - - - - SE 24 30 13 16 - - -
28/02:00pm - - - - - SE 24 28 13 15 - - -
28/01:30pm - - - - - ESE 24 30 13 16 - - -
28/01:00pm - - - - - SE 22 28 12 15 - - -
28/12:30pm - - - - - SE 26 30 14 16 - - -
28/12:00pm - - - - - SSE 20 24 11 13 - - -
28/11:30am - - - - - SSE 24 28 13 15 - - -
28/11:00am - - - - - SSE 26 30 14 16 - - -
28/10:30am - - - - - SSE 28 32 15 17 - - -
28/10:00am - - - - - SSE 26 30 14 16 - - -
28/09:30am - - - - - S 24 28 13 15 - - -
28/09:00am - - - - - S 26 32 14 17 - - -
28/08:30am - - - - - S 28 33 15 18 - - -
28/08:00am - - - - - S 30 33 16 18 - - -
28/07:30am - - - - - S 28 33 15 18 - - -
28/07:00am - - - - - S 26 30 14 16 - - -
28/06:30am - - - - - S 26 30 14 16 - - -
28/06:00am - - - - - S 28 33 15 18 - - -
28/05:30am - - - - - S 24 30 13 16 - - -
28/05:00am - - - - - S 20 24 11 13 - - -
28/04:30am - - - - - SSW 19 24 10 13 - - -
28/04:00am - - - - - SSW 20 24 11 13 - - -
28/03:30am - - - - - SSW 22 26 12 14 - - -
28/03:00am - - - - - SSW 24 30 13 16 - - -
28/02:30am - - - - - SSW 28 32 15 17 - - -
28/02:00am - - - - - SW 19 26 10 14 - - -
28/01:30am - - - - - SW 22 26 12 14 - - -
28/01:00am - - - - - SW 24 28 13 15 - - -
28/12:30am - - - - - SW 24 28 13 15 - - -
28/12:00am - - - - - SW 19 24 10 13 - - -
 
Date/Time
EST
Temp
°C
App
Temp
°C
Dew
Point
Rel
Hum
%
Delta-T
°C
Wind Press
QNH
hPa
Press
MSL
hPa
Rain
since 9 am
mm
Dir
 
Spd
km/h
Gust
km/h
Spd
kts
Gust
kts
27/11:30pm - - - - - SW 22 26 12 14 - - -
27/11:00pm - - - - - SW 20 26 11 14 - - -
27/10:30pm - - - - - SW 22 26 12 14 - - -
27/10:00pm - - - - - SW 24 32 13 17 - - -
27/09:30pm - - - - - SSW 24 28 13 15 - - -
27/09:00pm - - - - - SSW 22 26 12 14 - - -
27/08:30pm - - - - - SSW 20 24 11 13 - - -
27/08:00pm - - - - - SSW 19 22 10 12 - - -
27/07:30pm - - - - - S 15 17 8 9 - - -
27/07:00pm - - - - - S 13 17 7 9 - - -
27/06:30pm - - - - - S 15 19 8 10 - - -
27/06:00pm - - - - - SSW 13 17 7 9 - - -
27/05:30pm - - - - - SSW 17 20 9 11 - - -
27/05:00pm - - - - - SW 15 19 8 10 - - -
27/04:30pm - - - - - SW 20 24 11 13 - - -
27/04:00pm - - - - - SW 19 24 10 13 - - -
27/03:30pm - - - - - SSW 22 24 12 13 - - -
27/03:00pm - - - - - SSW 17 20 9 11 - - -
27/02:30pm - - - - - SSW 15 17 8 9 - - -
27/02:00pm - - - - - S 7 11 4 6 - - -
27/01:30pm - - - - - SE 13 17 7 9 - - -
27/01:00pm - - - - - E 7 11 4 6 - - -
27/12:30pm - - - - - S 9 11 5 6 - - -
27/12:00pm - - - - - SSW 22 24 12 13 - - -
27/11:30am - - - - - SSW 19 24 10 13 - - -
27/11:00am - - - - - SSW 19 22 10 12 - - -
27/10:30am - - - - - SW 20 24 11 13 - - -
27/10:00am - - - - - SW 15 19 8 10 - - -
27/09:30am - - - - - WSW 13 15 7 8 - - -
27/09:00am - - - - - WSW 13 17 7 9 - - -
27/08:30am - - - - - WNW 11 13 6 7 - - -
27/08:00am - - - - - W 15 19 8 10 - - -
27/07:30am - - - - - WSW 15 20 8 11 - - -
27/07:00am - - - - - WSW 11 13 6 7 - - -
27/06:30am - - - - - WSW 13 15 7 8 - - -
27/06:00am - - - - - WSW 15 17 8 9 - - -
27/05:30am - - - - - WSW 19 22 10 12 - - -
27/05:00am - - - - - SW 20 24 11 13 - - -
27/04:30am - - - - - SW 19 22 10 12 - - -
27/04:00am - - - - - WSW 19 22 10 12 - - -
27/03:30am - - - - - W 17 20 9 11 - - -
27/03:00am - - - - - WSW 17 20 9 11 - - -
27/02:30am - - - - - WSW 15 17 8 9 - - -
27/02:00am - - - - - SW 17 20 9 11 - - -
27/01:30am - - - - - SW 13 15 7 8 - - -
27/01:00am - - - - - SW 17 19 9 10 - - -
27/12:30am - - - - - SW 9 13 5 7 - - -
27/12:00am - - - - - SSW 11 13 6 7 - - -
 
Date/Time
EST
Temp
°C
App
Temp
°C
Dew
Point
Rel
Hum
%
Delta-T
°C
Wind Press
QNH
hPa
Press
MSL
hPa
Rain
since 9 am
mm
Dir
 
Spd
km/h
Gust
km/h
Spd
kts
Gust
kts
26/11:30pm - - - - - SSW 4 6 2 3 - - -
26/11:00pm - - - - - SW 9 11 5 6 - - -
26/10:30pm - - - - - WSW 7 9 4 5 - - -
26/10:00pm - - - - - WSW 7 9 4 5 - - -
26/09:30pm - - - - - W 7 11 4 6 - - -
26/09:00pm - - - - - W 6 7 3 4 - - -
26/08:30pm - - - - - NW 6 9 3 5 - - -
26/08:00pm - - - - - N 7 13 4 7 - - -
26/07:30pm - - - - - NNW 11 15 6 8 - - -
26/07:00pm - - - - - N 11 13 6 7 - - -
26/06:30pm - - - - - N 7 7 4 4 - - -
26/06:00pm - - - - - NNE 6 6 3 3 - - -
26/05:30pm - - - - - NNE 7 9 4 5 - - -
26/05:00pm - - - - - NE 6 6 3 3 - - -
26/04:30pm - - - - - CALM 0 6 0 3 - - -
26/04:00pm - - - - - ENE 4 6 2 3 - - -
26/03:30pm - - - - - ESE 4 6 2 3 - - -
26/03:00pm - - - - - SE 7 7 4 4 - - -
26/02:30pm - - - - - NE 7 9 4 5 - - -
26/02:00pm - - - - - E 7 9 4 5 - - -
26/01:30pm - - - - - ESE 11 13 6 7 - - -
26/01:00pm - - - - - SE 11 13 6 7 - - -
26/12:30pm - - - - - SE 11 13 6 7 - - -
26/12:00pm - - - - - ESE 6 7 3 4 - - -
26/11:30am - - - - - SSE 9 11 5 6 - - -
26/11:00am - - - - - S 9 9 5 5 - - -
26/10:30am - - - - - S 6 7 3 4 - - -
26/10:00am - - - - - S 6 6 3 3 - - -
26/09:30am - - - - - SSE 6 7 3 4 - - -
26/09:00am - - - - - SE 7 9 4 5 - - -
26/08:30am - - - - - SSE 15 17 8 9 - - -
26/08:00am - - - - - S 7 11 4 6 - - -
26/07:30am - - - - - SSW 11 13 6 7 - - -
26/07:00am - - - - - SSW 4 6 2 3 - - -
26/06:30am - - - - - S 2 4 1 2 - - -
26/06:00am - - - - - CALM 0 0 0 0 - - -
26/05:30am - - - - - CALM 0 0 0 0 - - -
26/05:00am - - - - - CALM 0 0 0 0 - - -
26/04:30am - - - - - CALM 0 0 0 0 - - -
26/04:00am - - - - - CALM 0 0 0 0 - - -
26/03:30am - - - - - S 2 4 1 2 - - -
26/03:00am - - - - - SSW 6 7 3 4 - - -
26/02:30am - - - - - SW 4 4 2 2 - - -
26/02:00am - - - - - WNW 4 6 2 3 - - -
26/01:30am - - - - - CALM 0 0 0 0 - - -

Other Formats:

Comma delimited format used in spreadsheet applications
http://www.bom.gov.au/fwo/IDQ60801/IDQ60801.94581.axf

JavaScript Object Notation format (JSON) in row-major order
http://www.bom.gov.au/fwo/IDQ60801/IDQ60801.94581.json